createdAt,value
2017-08-06T00:02:13.241Z,16.70
2017-08-06T00:04:41.025Z,16.80
2017-08-06T00:07:08.555Z,16.80
2017-08-06T00:09:36.256Z,16.70
2017-08-06T00:12:04.191Z,16.70
2017-08-06T00:14:31.687Z,16.70
2017-08-06T00:16:59.352Z,16.60
2017-08-06T00:19:30.284Z,16.50
2017-08-06T00:22:01.721Z,16.40
2017-08-06T00:24:29.436Z,16.20
2017-08-06T00:26:56.942Z,16.10
2017-08-06T00:29:24.495Z,16.10
2017-08-06T00:31:56.767Z,16.10
2017-08-06T00:34:27.325Z,15.90
2017-08-06T00:36:54.838Z,15.90
2017-08-06T00:39:22.335Z,15.90
2017-08-06T00:41:49.882Z,15.90
2017-08-06T00:44:17.385Z,16.00
2017-08-06T00:46:56.891Z,16.00
2017-08-06T00:49:28.332Z,15.90
2017-08-06T00:51:55.831Z,16.00
2017-08-06T00:54:23.334Z,16.00
2017-08-06T00:56:50.851Z,16.00
2017-08-06T00:59:18.428Z,15.90
2017-08-06T01:01:45.948Z,15.90
2017-08-06T01:04:13.459Z,15.90
2017-08-06T01:06:41.141Z,15.80
2017-08-06T01:09:08.905Z,15.80
2017-08-06T01:11:36.440Z,15.70
2017-08-06T01:14:03.967Z,15.80
2017-08-06T01:16:35.278Z,15.70
2017-08-06T01:19:03.034Z,15.60
2017-08-06T01:21:30.555Z,15.70
2017-08-06T01:23:58.848Z,15.60
2017-08-06T01:26:26.422Z,15.70
2017-08-06T01:28:53.936Z,15.70
2017-08-06T01:31:29.544Z,15.70
2017-08-06T01:33:57.299Z,15.70
2017-08-06T01:36:24.838Z,15.50
2017-08-06T01:38:52.355Z,15.40
2017-08-06T01:41:19.895Z,15.40
2017-08-06T01:43:47.439Z,15.40
2017-08-06T01:46:14.964Z,15.40
2017-08-06T01:48:46.022Z,15.40
2017-08-06T01:51:13.528Z,15.40
2017-08-06T01:53:41.023Z,15.40
2017-08-06T01:56:09.345Z,15.40
2017-08-06T01:58:36.847Z,15.30
2017-08-06T02:01:05.167Z,15.30
2017-08-06T02:03:32.669Z,15.30
2017-08-06T02:06:00.400Z,15.30
2017-08-06T02:08:27.931Z,15.30
2017-08-06T02:10:55.651Z,15.30
2017-08-06T02:13:23.303Z,15.20
2017-08-06T02:15:50.855Z,15.30
2017-08-06T02:18:25.291Z,15.20
2017-08-06T02:20:56.493Z,15.20
2017-08-06T02:23:24.023Z,15.20
2017-08-06T02:25:51.571Z,15.20
2017-08-06T02:28:19.192Z,15.10
2017-08-06T02:30:46.691Z,15.10
2017-08-06T02:33:18.166Z,15.10
2017-08-06T02:35:45.707Z,15.10
2017-08-06T02:38:17.587Z,15.00
2017-08-06T02:40:45.235Z,15.00
2017-08-06T02:43:13.086Z,14.80
2017-08-06T02:45:40.704Z,14.80
2017-08-06T02:48:19.707Z,14.80
2017-08-06T02:50:47.216Z,14.80
2017-08-06T02:53:14.752Z,14.70
2017-08-06T02:55:42.416Z,14.70
2017-08-06T02:58:10.064Z,14.70
2017-08-06T03:00:37.564Z,14.80
2017-08-06T03:03:08.445Z,14.70
2017-08-06T03:05:35.983Z,14.60
2017-08-06T03:08:03.485Z,14.60
2017-08-06T03:10:31.009Z,14.60
2017-08-06T03:12:58.578Z,14.70
2017-08-06T03:15:26.089Z,14.60
2017-08-06T03:18:04.556Z,14.50
2017-08-06T03:20:32.328Z,14.50
2017-08-06T03:23:03.072Z,14.50
2017-08-06T03:25:30.571Z,14.60
2017-08-06T03:27:58.068Z,14.60
2017-08-06T03:30:25.604Z,14.50
2017-08-06T03:32:53.872Z,14.50
2017-08-06T03:35:25.060Z,14.40
2017-08-06T03:37:56.491Z,14.30
2017-08-06T03:40:24.173Z,14.20
2017-08-06T03:42:51.726Z,14.10
2017-08-06T03:45:19.496Z,14.10
2017-08-06T03:47:47.259Z,14.20
2017-08-06T03:50:18.694Z,14.40
2017-08-06T03:52:46.236Z,14.40
2017-08-06T03:55:14.824Z,14.30
2017-08-06T03:57:42.603Z,14.30
2017-08-06T04:00:10.112Z,14.30
2017-08-06T04:02:38.167Z,14.40
2017-08-06T04:05:09.079Z,14.30
2017-08-06T04:07:36.579Z,14.40
2017-08-06T04:10:04.072Z,14.30
2017-08-06T04:12:31.623Z,14.30
2017-08-06T04:14:59.422Z,14.40
2017-08-06T04:17:26.919Z,14.50
2017-08-06T04:20:01.844Z,14.60
2017-08-06T04:22:29.352Z,14.80
2017-08-06T04:24:56.871Z,14.90
2017-08-06T04:27:24.400Z,15.00
2017-08-06T04:29:51.916Z,15.10
2017-08-06T04:32:19.447Z,15.30
2017-08-06T04:34:51.355Z,15.50
2017-08-06T04:37:18.868Z,15.60
2017-08-06T04:39:50.030Z,16.10
2017-08-06T04:42:21.409Z,17.20
2017-08-06T04:44:48.919Z,18.50
2017-08-06T04:47:17.253Z,20.80
2017-08-06T04:49:44.755Z,20.80
2017-08-06T04:52:12.303Z,21.60
2017-08-06T04:54:39.932Z,22.10
2017-08-06T04:57:07.443Z,22.70
2017-08-06T04:59:35.793Z,23.50
2017-08-06T05:02:03.444Z,23.50
2017-08-06T05:04:30.947Z,24.00
2017-08-06T05:07:02.712Z,24.40
2017-08-06T05:09:34.163Z,23.90
2017-08-06T05:12:01.950Z,23.60
2017-08-06T05:14:29.665Z,23.70
2017-08-06T05:16:57.401Z,24.30
2017-08-06T05:19:24.896Z,24.50
2017-08-06T05:21:52.452Z,24.90
2017-08-06T05:24:19.960Z,24.40
2017-08-06T05:26:47.464Z,24.20
2017-08-06T05:29:15.025Z,24.50
2017-08-06T05:31:42.744Z,25.10
2017-08-06T05:34:10.271Z,25.40
2017-08-06T05:36:40.991Z,24.90
2017-08-06T05:39:08.488Z,23.90
2017-08-06T05:41:43.422Z,22.90
2017-08-06T05:44:10.926Z,22.30
2017-08-06T05:46:38.428Z,21.50
2017-08-06T05:49:06.121Z,21.00
2017-08-06T05:51:33.856Z,20.20
2017-08-06T05:54:01.367Z,19.50
2017-08-06T05:56:28.882Z,19.30
2017-08-06T05:58:56.488Z,19.20
2017-08-06T06:01:24.305Z,19.10
2017-08-06T06:03:51.874Z,19.10
2017-08-06T06:06:22.597Z,19.10
2017-08-06T06:08:54.108Z,19.30
2017-08-06T06:11:22.415Z,19.30
2017-08-06T06:13:49.947Z,19.30
2017-08-06T06:16:17.488Z,19.30
2017-08-06T06:18:44.995Z,19.50
2017-08-06T06:21:12.567Z,19.80
2017-08-06T06:23:40.116Z,19.70
2017-08-06T06:26:07.667Z,19.70
2017-08-06T06:28:35.192Z,19.60
2017-08-06T06:31:02.699Z,19.60
2017-08-06T06:33:30.371Z,19.40
2017-08-06T06:35:57.875Z,19.00
2017-08-06T06:38:28.863Z,18.70
2017-08-06T06:40:56.367Z,18.50
2017-08-06T06:43:23.891Z,18.50
2017-08-06T06:45:51.428Z,18.60
2017-08-06T06:48:19.199Z,18.40
2017-08-06T06:50:46.737Z,18.40
2017-08-06T06:53:18.467Z,18.30
2017-08-06T06:55:46.747Z,18.20
2017-08-06T06:58:18.242Z,18.20
2017-08-06T07:00:46.327Z,18.00
2017-08-06T07:03:13.870Z,18.00
2017-08-06T07:05:41.452Z,17.70
2017-08-06T07:08:20.466Z,17.80
2017-08-06T07:10:47.977Z,17.70
2017-08-06T07:13:15.481Z,17.60
2017-08-06T07:15:43.019Z,17.60
2017-08-06T07:18:10.531Z,17.50
2017-08-06T07:20:38.075Z,17.50
2017-08-06T07:23:10.264Z,17.60
2017-08-06T07:25:42.379Z,17.60
2017-08-06T07:28:09.896Z,17.90
2017-08-06T07:30:40.688Z,18.20
2017-08-06T07:33:08.435Z,18.10
2017-08-06T07:35:35.947Z,18.00
2017-08-06T07:38:07.069Z,17.90
2017-08-06T07:40:38.489Z,17.90
2017-08-06T07:43:09.966Z,17.90
2017-08-06T07:45:37.520Z,17.90
2017-08-06T07:48:05.107Z,18.10
2017-08-06T07:50:32.625Z,18.30
2017-08-06T07:53:04.092Z,18.40
2017-08-06T07:55:39.013Z,18.40
2017-08-06T07:58:06.511Z,18.30
2017-08-06T08:00:34.440Z,18.40
2017-08-06T08:03:01.949Z,18.50
2017-08-06T08:05:30.256Z,18.70
2017-08-06T08:08:02.339Z,18.70
2017-08-06T08:10:29.835Z,18.70
2017-08-06T08:12:57.399Z,18.70
2017-08-06T08:15:24.958Z,18.60
2017-08-06T08:17:52.472Z,18.40
2017-08-06T08:20:20.025Z,18.30
2017-08-06T08:22:47.542Z,18.30
2017-08-06T08:25:15.152Z,18.30
2017-08-06T08:27:45.684Z,18.40
2017-08-06T08:30:13.180Z,18.60
2017-08-06T08:32:45.232Z,18.60
2017-08-06T08:35:12.745Z,18.50
2017-08-06T08:37:40.335Z,18.50
2017-08-06T08:40:12.500Z,18.70
2017-08-06T08:42:40.031Z,18.90
2017-08-06T08:45:07.544Z,18.90
2017-08-06T08:47:38.533Z,18.80
2017-08-06T08:50:06.043Z,18.80
2017-08-06T08:52:33.803Z,18.80
2017-08-06T08:55:01.346Z,18.80
2017-08-06T08:57:29.003Z,19.00
2017-08-06T08:59:56.559Z,19.10
2017-08-06T09:02:24.142Z,19.30
2017-08-06T09:04:51.696Z,19.40
2017-08-06T09:07:19.204Z,19.30
2017-08-06T09:09:51.179Z,19.50
2017-08-06T09:12:18.683Z,19.60
2017-08-06T09:14:46.193Z,19.70
2017-08-06T09:17:14.140Z,19.90
2017-08-06T09:19:41.928Z,20.00
2017-08-06T09:22:09.480Z,19.90
2017-08-06T09:24:40.888Z,19.80
2017-08-06T09:27:11.365Z,19.80
2017-08-06T09:29:38.867Z,20.00
2017-08-06T09:32:06.427Z,20.30
2017-08-06T09:34:34.302Z,20.60
2017-08-06T09:37:01.855Z,20.70
2017-08-06T09:39:32.650Z,21.00
2017-08-06T09:42:00.158Z,20.90
2017-08-06T09:44:32.839Z,20.40
2017-08-06T09:47:04.534Z,20.40
2017-08-06T09:49:32.228Z,20.30
2017-08-06T09:51:59.779Z,20.70
2017-08-06T09:54:28.110Z,20.50
2017-08-06T09:56:55.613Z,20.50
2017-08-06T09:59:26.456Z,20.50
2017-08-06T10:01:53.985Z,20.70
2017-08-06T10:04:21.506Z,21.00
2017-08-06T10:06:49.109Z,21.00
2017-08-06T10:09:16.618Z,21.00
2017-08-06T10:11:44.180Z,21.30
2017-08-06T10:14:14.563Z,21.30
2017-08-06T10:16:42.112Z,21.50
2017-08-06T10:19:09.620Z,21.80
2017-08-06T10:21:38.113Z,21.60
2017-08-06T10:24:05.820Z,21.70
2017-08-06T10:26:33.328Z,22.20
2017-08-06T10:29:04.376Z,22.80
2017-08-06T10:31:31.943Z,23.40
2017-08-06T10:33:59.655Z,24.00
2017-08-06T10:36:30.571Z,24.30
2017-08-06T10:39:02.133Z,24.20
2017-08-06T10:41:30.015Z,24.10
2017-08-06T10:44:00.632Z,24.10
2017-08-06T10:46:28.135Z,24.00
2017-08-06T10:48:55.671Z,24.10
2017-08-06T10:51:23.255Z,24.10
2017-08-06T10:53:50.768Z,24.10
2017-08-06T10:56:21.607Z,24.00
2017-08-06T10:58:53.978Z,23.80
2017-08-06T11:01:21.483Z,23.70
2017-08-06T11:03:49.027Z,23.90
2017-08-06T11:06:16.667Z,24.10
2017-08-06T11:08:44.231Z,24.30
2017-08-06T11:11:15.089Z,24.00
2017-08-06T11:13:42.642Z,24.00
2017-08-06T11:16:10.178Z,24.40
2017-08-06T11:18:37.716Z,24.30
2017-08-06T11:21:05.257Z,24.50
2017-08-06T11:23:33.776Z,24.40
2017-08-06T11:26:04.287Z,24.40
2017-08-06T11:28:31.787Z,24.30
2017-08-06T11:30:59.520Z,24.10
2017-08-06T11:33:27.039Z,24.30
2017-08-06T11:35:55.046Z,24.40
2017-08-06T11:38:22.583Z,24.40
2017-08-06T11:40:50.088Z,24.40
2017-08-06T11:43:22.103Z,24.30
2017-08-06T11:45:49.637Z,24.40
2017-08-06T11:48:17.175Z,24.30
2017-08-06T11:50:44.687Z,24.40
2017-08-06T11:53:12.209Z,24.90
2017-08-06T11:55:40.248Z,25.10
2017-08-06T11:58:07.748Z,24.40
2017-08-06T12:00:39.757Z,24.20
2017-08-06T12:03:07.272Z,24.10
2017-08-06T12:05:36.003Z,24.80
2017-08-06T12:08:03.652Z,24.70
2017-08-06T12:10:31.211Z,25.10
2017-08-06T12:12:58.881Z,24.90
2017-08-06T12:15:29.707Z,24.80
2017-08-06T12:17:57.593Z,25.30
2017-08-06T12:20:25.151Z,25.50
2017-08-06T12:22:52.648Z,25.70
2017-08-06T12:25:20.202Z,26.10
2017-08-06T12:27:47.768Z,25.80
2017-08-06T12:30:15.284Z,25.30
2017-08-06T12:32:46.217Z,24.80
2017-08-06T12:35:13.724Z,24.40
2017-08-06T12:37:44.715Z,24.10
2017-08-06T12:40:12.575Z,23.90
2017-08-06T12:42:44.977Z,23.90
2017-08-06T12:45:15.476Z,23.80
2017-08-06T12:47:46.938Z,23.60
2017-08-06T12:50:14.692Z,23.40
2017-08-06T12:52:42.760Z,23.50
2017-08-06T12:55:10.267Z,23.50
2017-08-06T12:57:38.163Z,23.80
2017-08-06T13:00:05.693Z,24.00
2017-08-06T13:02:33.199Z,24.10
2017-08-06T13:05:00.747Z,24.10
2017-08-06T13:07:29.012Z,24.30
2017-08-06T13:09:56.832Z,24.30
2017-08-06T13:12:24.336Z,24.40
2017-08-06T13:14:59.431Z,24.70
2017-08-06T13:17:26.944Z,24.60
2017-08-06T13:19:54.495Z,24.50
2017-08-06T13:22:22.919Z,24.70
2017-08-06T13:24:50.483Z,24.30
2017-08-06T13:27:17.975Z,23.80
2017-08-06T13:29:46.277Z,23.60
2017-08-06T13:32:17.699Z,23.60
2017-08-06T13:34:45.191Z,23.90
2017-08-06T13:37:12.823Z,24.10
2017-08-06T13:39:40.351Z,24.10
2017-08-06T13:42:07.904Z,24.00
2017-08-06T13:44:35.629Z,23.90
2017-08-06T13:47:07.279Z,23.90
2017-08-06T13:49:38.860Z,24.00
2017-08-06T13:52:06.437Z,24.10
2017-08-06T13:54:33.944Z,23.90
2017-08-06T13:57:01.523Z,23.70
2017-08-06T13:59:32.985Z,23.70
2017-08-06T14:02:00.488Z,23.90
2017-08-06T14:04:27.987Z,24.00
2017-08-06T14:06:55.565Z,24.00
2017-08-06T14:09:23.199Z,24.10
2017-08-06T14:11:51.196Z,24.30
2017-08-06T14:14:22.747Z,24.40
2017-08-06T14:16:50.658Z,24.10
2017-08-06T14:19:18.170Z,24.00
2017-08-06T14:21:46.248Z,23.80
2017-08-06T14:24:13.844Z,23.80
2017-08-06T14:26:41.376Z,23.40
2017-08-06T14:29:12.316Z,23.40
2017-08-06T14:31:39.829Z,23.40
2017-08-06T14:34:11.826Z,23.20
2017-08-06T14:36:39.327Z,23.20
2017-08-06T14:39:11.963Z,23.40
2017-08-06T14:41:39.499Z,23.50
2017-08-06T14:44:07.135Z,23.80
2017-08-06T14:46:38.325Z,23.50
2017-08-06T14:49:05.844Z,23.20
2017-08-06T14:51:34.172Z,22.90
2017-08-06T14:54:02.002Z,22.90
2017-08-06T14:56:29.553Z,22.80
2017-08-06T14:58:57.384Z,22.70
2017-08-06T15:01:24.963Z,22.90
2017-08-06T15:03:53.287Z,23.10
2017-08-06T15:06:20.799Z,23.10
2017-08-06T15:08:49.111Z,22.70
2017-08-06T15:11:16.785Z,22.70
2017-08-06T15:13:44.685Z,22.70
2017-08-06T15:16:12.178Z,22.60
2017-08-06T15:18:40.444Z,22.70
2017-08-06T15:21:08.077Z,22.70
2017-08-06T15:23:35.812Z,22.60
2017-08-06T15:26:03.344Z,22.60
2017-08-06T15:28:30.850Z,22.60
2017-08-06T15:31:01.148Z,22.50
2017-08-06T15:33:28.644Z,22.40
2017-08-06T15:35:56.232Z,22.30
2017-08-06T15:38:23.767Z,22.20
2017-08-06T15:40:51.260Z,22.30
2017-08-06T15:43:18.802Z,22.20
2017-08-06T15:45:54.147Z,22.20
2017-08-06T15:48:21.668Z,22.20
2017-08-06T15:50:49.412Z,22.40
2017-08-06T15:53:16.952Z,22.40
2017-08-06T15:55:44.540Z,22.50
2017-08-06T15:58:12.035Z,22.60
2017-08-06T16:00:43.543Z,22.70
2017-08-06T16:03:14.071Z,22.80
2017-08-06T16:05:41.816Z,22.90
2017-08-06T16:08:12.383Z,23.00
2017-08-06T16:10:40.367Z,23.20
2017-08-06T16:13:07.863Z,23.50
2017-08-06T16:15:39.634Z,23.50
2017-08-06T16:18:10.167Z,23.50
2017-08-06T16:20:45.375Z,23.20
2017-08-06T16:23:13.798Z,23.00
2017-08-06T16:25:41.397Z,23.00
2017-08-06T16:28:09.220Z,23.00
2017-08-06T16:30:36.755Z,23.00
2017-08-06T16:33:07.522Z,23.00
2017-08-06T16:35:35.028Z,23.20
2017-08-06T16:38:07.639Z,23.70
2017-08-06T16:40:35.152Z,23.70
2017-08-06T16:43:02.656Z,23.90
2017-08-06T16:45:30.215Z,24.10
2017-08-06T16:47:57.715Z,23.90
2017-08-06T16:50:29.835Z,24.10
2017-08-06T16:52:57.452Z,24.80
2017-08-06T16:55:24.968Z,25.70
2017-08-06T16:57:53.325Z,26.70
2017-08-06T17:00:20.933Z,27.40
2017-08-06T17:02:52.371Z,27.90
2017-08-06T17:05:19.867Z,28.20
2017-08-06T17:07:48.330Z,29.00
2017-08-06T17:10:16.830Z,29.20
2017-08-06T17:12:44.335Z,29.20
2017-08-06T17:15:11.865Z,29.50
2017-08-06T17:17:42.937Z,29.70
2017-08-06T17:20:10.446Z,28.50
2017-08-06T17:25:16.367Z,27.70
2017-08-06T17:27:43.867Z,26.70
2017-08-06T17:30:11.405Z,26.60
2017-08-06T17:32:38.908Z,27.10
2017-08-06T17:35:10.494Z,27.60
2017-08-06T17:37:41.015Z,27.60
2017-08-06T17:40:08.636Z,27.80
2017-08-06T17:42:36.232Z,27.20
2017-08-06T17:45:03.755Z,27.00
2017-08-06T17:47:34.223Z,27.40
2017-08-06T17:50:01.743Z,27.60
2017-08-06T17:52:30.044Z,27.90
2017-08-06T17:54:57.630Z,27.80
2017-08-06T17:57:25.140Z,27.50
2017-08-06T17:59:52.702Z,27.50
2017-08-06T18:02:23.886Z,27.30
2017-08-06T18:04:51.419Z,27.00
2017-08-06T18:07:23.155Z,26.80
2017-08-06T18:09:52.116Z,26.80
2017-08-06T18:12:20.710Z,26.80
2017-08-06T18:14:48.248Z,26.70
2017-08-06T18:17:16.364Z,26.50
2017-08-06T18:19:47.783Z,26.10
2017-08-06T18:22:15.293Z,26.00
2017-08-06T18:24:46.289Z,25.60
2017-08-06T18:27:13.789Z,24.80
2017-08-06T18:29:41.352Z,23.80
2017-08-06T18:32:08.923Z,23.00
2017-08-06T18:34:36.452Z,22.30
2017-08-06T18:37:03.958Z,21.70
2017-08-06T18:39:31.491Z,21.20
2017-08-06T18:41:59.035Z,20.90
2017-08-06T18:44:26.591Z,20.70
2017-08-06T18:46:54.128Z,20.40
2017-08-06T18:49:24.915Z,20.10
2017-08-06T18:51:52.444Z,19.90
2017-08-06T18:54:22.729Z,19.50
2017-08-06T18:56:52.243Z,19.40
2017-08-06T18:59:20.904Z,19.20
2017-08-06T19:01:49.995Z,19.00
2017-08-06T19:04:23.280Z,18.70
2017-08-06T19:06:52.229Z,18.70
2017-08-06T19:09:21.083Z,18.60
2017-08-06T19:11:48.699Z,18.50
2017-08-06T19:14:16.340Z,18.40
2017-08-06T19:16:43.925Z,18.20
2017-08-06T19:19:11.456Z,18.10
2017-08-06T19:21:38.982Z,18.00
2017-08-06T19:24:09.928Z,17.90
2017-08-06T19:26:37.787Z,17.80
2017-08-06T19:29:05.337Z,17.80
2017-08-06T19:31:32.880Z,17.70
2017-08-06T19:34:04.024Z,17.70
2017-08-06T19:36:31.529Z,17.80
2017-08-06T19:38:59.055Z,17.60
2017-08-06T19:41:26.557Z,17.60
2017-08-06T19:43:54.160Z,17.50
2017-08-06T19:46:21.669Z,17.40
2017-08-06T19:48:49.416Z,17.30
2017-08-06T19:51:16.983Z,17.30
2017-08-06T19:53:44.480Z,17.30
2017-08-06T19:56:11.988Z,17.20
2017-08-06T19:58:39.846Z,17.20
2017-08-06T20:01:07.345Z,17.00
2017-08-06T20:03:35.618Z,16.90
2017-08-06T20:06:03.641Z,16.90
2017-08-06T20:08:31.153Z,16.80
2017-08-06T20:10:58.658Z,16.80
2017-08-06T20:13:26.218Z,16.80
2017-08-06T20:15:53.983Z,16.70
2017-08-06T20:18:21.920Z,16.70
2017-08-06T20:20:52.884Z,16.80
2017-08-06T20:23:20.410Z,16.70
2017-08-06T20:25:47.951Z,16.60
2017-08-06T20:28:15.462Z,16.60
2017-08-06T20:30:42.963Z,16.60
2017-08-06T20:33:10.527Z,16.50
2017-08-06T20:35:38.086Z,16.40
2017-08-06T20:38:05.674Z,16.40
2017-08-06T20:40:36.718Z,16.30
2017-08-06T20:43:08.231Z,16.30
2017-08-06T20:45:35.944Z,16.30
2017-08-06T20:48:03.462Z,16.30
2017-08-06T20:50:35.478Z,16.20
2017-08-06T20:53:03.232Z,16.10
2017-08-06T20:55:30.965Z,16.10
2017-08-06T20:57:58.488Z,16.00
2017-08-06T21:00:26.007Z,16.00
2017-08-06T21:02:53.658Z,16.00
2017-08-06T21:05:21.435Z,15.90
2017-08-06T21:07:52.271Z,15.80
2017-08-06T21:10:19.808Z,15.80
2017-08-06T21:12:48.118Z,15.80
2017-08-06T21:15:15.646Z,15.70
2017-08-06T21:17:43.969Z,15.60
2017-08-06T21:20:11.535Z,15.60
2017-08-06T21:22:39.047Z,15.60
2017-08-06T21:25:06.916Z,15.60
2017-08-06T21:27:34.420Z,15.60
2017-08-06T21:30:02.530Z,15.60
2017-08-06T21:32:30.845Z,15.50
2017-08-06T21:34:58.386Z,15.50
2017-08-06T21:37:30.075Z,15.50
2017-08-06T21:40:00.598Z,15.40
2017-08-06T21:42:32.144Z,15.30
2017-08-06T21:44:59.677Z,15.20
2017-08-06T21:47:27.213Z,15.10
2017-08-06T21:49:54.726Z,15.00
2017-08-06T21:52:26.072Z,14.80
2017-08-06T21:54:53.882Z,14.80
2017-08-06T21:57:21.446Z,14.80
2017-08-06T21:59:49.774Z,14.80
2017-08-06T22:02:17.480Z,14.80
2017-08-06T22:04:45.125Z,14.80
2017-08-06T22:07:12.703Z,14.80
2017-08-06T22:09:40.526Z,14.70
2017-08-06T22:12:08.059Z,14.70
2017-08-06T22:14:35.729Z,14.70
2017-08-06T22:17:03.231Z,14.70
2017-08-06T22:19:30.732Z,14.70
2017-08-06T22:22:05.119Z,14.60
2017-08-06T22:24:32.751Z,14.60
2017-08-06T22:27:00.248Z,14.60
2017-08-06T22:29:28.472Z,14.50
2017-08-06T22:31:56.146Z,14.50
2017-08-06T22:34:23.652Z,14.50
2017-08-06T22:36:55.808Z,14.50
2017-08-06T22:39:23.474Z,14.50
2017-08-06T22:41:54.572Z,14.50
2017-08-06T22:44:22.088Z,14.40
2017-08-06T22:46:49.627Z,14.40
2017-08-06T22:49:17.627Z,14.30
2017-08-06T22:51:45.137Z,14.30
2017-08-06T22:54:17.167Z,14.30
2017-08-06T22:56:44.671Z,14.20
2017-08-06T22:59:12.223Z,14.00
2017-08-06T23:01:39.766Z,14.00
2017-08-06T23:04:07.438Z,14.00
2017-08-06T23:06:34.936Z,14.00
2017-08-06T23:09:05.918Z,14.00
2017-08-06T23:11:33.453Z,14.00
2017-08-06T23:14:00.960Z,13.90
2017-08-06T23:16:28.533Z,13.90
2017-08-06T23:18:56.039Z,13.90
2017-08-06T23:21:23.914Z,13.90
2017-08-06T23:23:55.054Z,13.90
2017-08-06T23:26:23.127Z,13.80
2017-08-06T23:28:50.891Z,13.80
2017-08-06T23:31:18.837Z,13.80
2017-08-06T23:33:46.384Z,13.80
2017-08-06T23:36:14.966Z,13.70
2017-08-06T23:38:46.271Z,13.70
2017-08-06T23:41:14.147Z,13.80
2017-08-06T23:43:41.644Z,13.80
2017-08-06T23:46:12.537Z,13.80
2017-08-06T23:48:40.031Z,13.80
2017-08-06T23:51:08.319Z,13.70
2017-08-06T23:53:38.860Z,13.70
2017-08-06T23:56:06.412Z,13.70
2017-08-06T23:58:34.700Z,13.60
